»·PEaware :: DFGCW KBOK-KCVO

DFGCW :: KBOK-KCVO

FLIGHT INFORMATION

Flight Status: Arrived
Operator: Unknown
More flights by this operator :: More flights under this callsign
Pilot: Klaus A. (15485)
Aircraft: PILATUS PC-12 EAGLE
(PC12)
More flights by this aircraft type
Origin: KBOK Brookings State
United States
Destination: KCVO Corvallis Mun
United States
More flights between these airports :: More routes between these airports
Route: ROOTY V27 OTH V121 VAUGN V495 CVO
File this flight plan on PilotEdge
Remarks: PBN / D2 DOF / 180817 REG / DFGCW PER / B TALT / KMFR RMK / TCAS SIMBRIEF
Altitude:
(Current/Filed)
17,000ft
Speed:
(Current/Filed)
274kts
Departed: 17-Aug-18 08:54 AM
Arrived: 17-Aug-18 09:48 AM
Distance/Time
Traveled:
152nm/0:54
Distance/Time
To Go:
Arrived

Flight Plot

Page will automatically refresh every two minutes.

Flight plan parsing failed; only flown route is shown


Map Options




Map Legend


Flown Route
Filed Route
Departure Airport
Arrival Airport
Navaid (VOR, NDB)
Fix

Horizontal Profiles

Position Reports

Time Latitude Longitude Heading Altitude Ground
Speed
17-Aug-18 08:44 42.074707 -124.289675 325 463ft 0kts
17-Aug-18 08:45 42.074707 -124.289675 325 463ft 0kts
17-Aug-18 08:46 42.074707 -124.289675 325 463ft 0kts
17-Aug-18 08:47 42.074707 -124.289675 325 463ft 0kts
17-Aug-18 08:48 42.074707 -124.289675 325 463ft 0kts
17-Aug-18 08:49 42.074707 -124.289675 325 463ft 0kts
17-Aug-18 08:50 42.074750 -124.289944 302 464ft 3kts
17-Aug-18 08:51 42.077139 -124.292381 306 464ft 0kts
17-Aug-18 08:52 42.077139 -124.292381 305 464ft 0kts
17-Aug-18 08:53 42.077152 -124.292408 299 464ft 1kts
17-Aug-18 08:54 42.077180 -124.292531 275 464ft 4kts
17-Aug-18 08:55 42.064429 -124.278995 135 1171ft 106kts
17-Aug-18 08:56 42.043027 -124.251850 131 2890ft 111kts
17-Aug-18 08:57 42.011000 -124.245141 243 4918ft 148kts
17-Aug-18 08:58 42.036485 -124.262082 33 7038ft 151kts
17-Aug-18 08:59 42.071129 -124.225103 15 8641ft 173kts
17-Aug-18 09:00 42.118489 -124.222009 0 10448ft 173kts
17-Aug-18 09:01 42.167015 -124.219521 359 12259ft 178kts
17-Aug-18 09:02 42.217142 -124.216853 358 13932ft 184kts
17-Aug-18 09:03 42.268361 -124.214079 357 15524ft 185kts
17-Aug-18 09:04 42.311462 -124.211743 357 16698ft 189kts
17-Aug-18 09:05 42.380784 -124.208023 358 17010ft 241kts
17-Aug-18 09:06 42.438488 -124.204853 358 17003ft 255kts
17-Aug-18 09:07 42.510134 -124.200912 358 17001ft 261kts
17-Aug-18 09:08 42.594731 -124.198995 344 16987ft 259kts
17-Aug-18 09:09 42.654727 -124.206067 355 17000ft 261kts
17-Aug-18 09:10 42.738900 -124.204550 358 17138ft 260kts
17-Aug-18 09:11 42.799071 -124.201705 358 17118ft 261kts
17-Aug-18 09:12 42.871294 -124.197908 358 17118ft 260kts
17-Aug-18 09:13 42.943367 -124.194023 358 17118ft 259kts
17-Aug-18 09:14 43.015398 -124.190123 358 17118ft 259kts
17-Aug-18 09:15 43.087481 -124.186214 358 17118ft 259kts
17-Aug-18 09:16 43.158450 -124.182362 358 17120ft 259kts
17-Aug-18 09:17 43.230407 -124.178443 358 17120ft 259kts
17-Aug-18 09:18 43.302019 -124.174547 358 17120ft 258kts
17-Aug-18 09:19 43.373431 -124.170685 358 17119ft 257kts
17-Aug-18 09:20 43.436984 -124.134045 42 17117ft 270kts
17-Aug-18 09:21 43.492106 -124.064809 38 17119ft 269kts
17-Aug-18 09:22 43.546608 -123.994123 39 17120ft 269kts
17-Aug-18 09:23 43.600461 -123.922725 39 17120ft 269kts
17-Aug-18 09:24 43.654363 -123.850910 39 17119ft 269kts
17-Aug-18 09:25 43.710430 -123.782665 37 17110ft 269kts
17-Aug-18 09:26 43.764794 -123.711541 39 17035ft 273kts
17-Aug-18 09:27 43.818942 -123.638280 39 17000ft 271kts
17-Aug-18 09:28 43.873867 -123.561946 46 15953ft 287kts
17-Aug-18 09:29 43.929520 -123.482826 40 14865ft 284kts
17-Aug-18 09:30 43.996205 -123.452849 352 13614ft 250kts
17-Aug-18 09:31 44.061519 -123.457308 7 12262ft 230kts
17-Aug-18 09:32 44.121053 -123.434436 11 10992ft 221kts
17-Aug-18 09:33 44.179219 -123.412909 11 10006ft 205kts
17-Aug-18 09:34 44.231193 -123.393661 11 9292ft 200kts
17-Aug-18 09:35 44.280744 -123.357532 42 8021ft 212kts
17-Aug-18 09:36 44.312399 -123.293596 95 6731ft 221kts
17-Aug-18 09:37 44.262504 -123.265347 186 5429ft 221kts
17-Aug-18 09:38 44.201959 -123.272662 206 4094ft 219kts
17-Aug-18 09:39 44.209988 -123.322442 7 3706ft 164kts
17-Aug-18 09:40 44.250582 -123.322677 358 3712ft 125kts
17-Aug-18 09:41 44.282455 -123.323966 358 3708ft 113kts
17-Aug-18 09:42 44.314985 -123.323171 6 3705ft 119kts
17-Aug-18 09:43 44.345838 -123.317916 7 2798ft 102kts
17-Aug-18 09:44 44.374458 -123.312255 3 2452ft 117kts
17-Aug-18 09:45 44.403037 -123.308138 5 1923ft 102kts
17-Aug-18 09:46 44.432381 -123.303157 6 1368ft 109kts
17-Aug-18 09:47 44.461698 -123.298178 6 796ft 105kts
17-Aug-18 09:48 44.489171 -123.293580 6 285ft 93kts
17-Aug-18 09:49 44.498421 -123.290832 95 252ft 0kts
17-Aug-18 09:50 44.498414 -123.290707 93 252ft 4kts
17-Aug-18 09:51 44.499319 -123.285299 24 252ft 0kts
17-Aug-18 09:52 44.501428 -123.284136 0 252ft 12kts
17-Aug-18 09:53 44.502040 -123.285385 191 252ft 0kts
17-Aug-18 09:54 44.502040 -123.285385 191 251ft 0kts
17-Aug-18 09:55 44.502040 -123.285385 191 251ft 0kts
17-Aug-18 09:56 44.502040 -123.285385 191 251ft 0kts
17-Aug-18 09:57 44.502040 -123.285385 191 251ft 0kts
17-Aug-18 09:58 44.502040 -123.285385 191 251ft 0kts
17-Aug-18 09:59 44.502040 -123.285385 191 251ft 0kts
17-Aug-18 10:00 44.502040 -123.285385 191 251ft 0kts
17-Aug-18 10:01 44.502040 -123.285385 191 251ft 0kts
17-Aug-18 10:02 44.502040 -123.285385 191 251ft 0kts
17-Aug-18 10:03 44.502040 -123.285385 191 251ft 0kts

Navigation Log

Ident Type
Flight plan parsing failed, navigation log unavailable